sensor_id;sensor_type;location;lat;lon;timestamp;pressure;altitude;pressure_sealevel;temperature;humidity
75172;BME280;63750;52.418;20.742;2022-11-02T00:00:30;100880.13;;;13.31;75.37
75172;BME280;63750;52.418;20.742;2022-11-02T00:02:59;100876.23;;;13.32;75.32
75172;BME280;63750;52.418;20.742;2022-11-02T00:05:27;100873.00;;;13.33;75.26
75172;BME280;63750;52.418;20.742;2022-11-02T00:07:56;100871.65;;;13.32;75.17
75172;BME280;63750;52.418;20.742;2022-11-02T00:10:25;100868.58;;;13.34;75.33
75172;BME280;63750;52.418;20.742;2022-11-02T00:12:53;100873.39;;;13.38;75.32
75172;BME280;63750;52.418;20.742;2022-11-02T00:15:22;100875.45;;;13.37;75.15
75172;BME280;63750;52.418;20.742;2022-11-02T00:17:54;100876.81;;;13.36;75.10
75172;BME280;63750;52.418;20.742;2022-11-02T00:20:25;100878.40;;;13.36;75.19
75172;BME280;63750;52.418;20.742;2022-11-02T00:22:57;100876.00;;;13.33;75.25
75172;BME280;63750;52.418;20.742;2022-11-02T00:25:26;100873.91;;;13.36;75.30
75172;BME280;63750;52.418;20.742;2022-11-02T00:27:56;100876.46;;;13.39;75.12
75172;BME280;63750;52.418;20.742;2022-11-02T00:30:24;100877.24;;;13.38;75.20
75172;BME280;63750;52.418;20.742;2022-11-02T00:32:52;100881.20;;;13.38;75.06
75172;BME280;63750;52.418;20.742;2022-11-02T00:35:20;100880.40;;;13.37;74.94
75172;BME280;63750;52.418;20.742;2022-11-02T00:37:48;100881.20;;;13.36;75.21
75172;BME280;63750;52.418;20.742;2022-11-02T00:40:18;100880.14;;;13.34;75.28
75172;BME280;63750;52.418;20.742;2022-11-02T00:42:46;100879.85;;;13.34;75.13
75172;BME280;63750;52.418;20.742;2022-11-02T00:45:14;100879.23;;;13.35;75.38
75172;BME280;63750;52.418;20.742;2022-11-02T00:47:42;100879.11;;;13.36;75.37
75172;BME280;63750;52.418;20.742;2022-11-02T00:50:11;100878.76;;;13.38;75.43
75172;BME280;63750;52.418;20.742;2022-11-02T00:52:40;100876.27;;;13.36;75.54
75172;BME280;63750;52.418;20.742;2022-11-02T00:55:10;100876.86;;;13.35;75.61
75172;BME280;63750;52.418;20.742;2022-11-02T00:57:39;100875.11;;;13.37;75.48
75172;BME280;63750;52.418;20.742;2022-11-02T01:00:10;100869.37;;;13.35;75.74
75172;BME280;63750;52.418;20.742;2022-11-02T01:02:39;100872.04;;;13.37;75.61
75172;BME280;63750;52.418;20.742;2022-11-02T01:05:09;100868.27;;;13.39;75.69
75172;BME280;63750;52.418;20.742;2022-11-02T01:07:38;100870.84;;;13.41;75.72
75172;BME280;63750;52.418;20.742;2022-11-02T01:10:08;100867.52;;;13.42;75.66
75172;BME280;63750;52.418;20.742;2022-11-02T01:12:38;100865.10;;;13.43;75.52
75172;BME280;63750;52.418;20.742;2022-11-02T01:15:08;100868.27;;;13.41;75.50
75172;BME280;63750;52.418;20.742;2022-11-02T01:17:36;100866.27;;;13.40;75.50
75172;BME280;63750;52.418;20.742;2022-11-02T01:20:06;100866.02;;;13.39;75.39
75172;BME280;63750;52.418;20.742;2022-11-02T01:22:35;100867.52;;;13.38;75.46
75172;BME280;63750;52.418;20.742;2022-11-02T01:25:04;100865.91;;;13.38;75.44
75172;BME280;63750;52.418;20.742;2022-11-02T01:27:32;100866.00;;;13.37;75.57
75172;BME280;63750;52.418;20.742;2022-11-02T01:30:01;100867.13;;;13.38;75.67
75172;BME280;63750;52.418;20.742;2022-11-02T01:32:30;100862.48;;;13.40;75.57
75172;BME280;63750;52.418;20.742;2022-11-02T01:34:58;100861.11;;;13.42;75.52
75172;BME280;63750;52.418;20.742;2022-11-02T01:37:27;100859.65;;;13.42;75.63
75172;BME280;63750;52.418;20.742;2022-11-02T01:39:55;100857.52;;;13.44;75.67
75172;BME280;63750;52.418;20.742;2022-11-02T01:42:25;100857.89;;;13.46;75.73
75172;BME280;63750;52.418;20.742;2022-11-02T01:44:54;100857.42;;;13.45;75.85
75172;BME280;63750;52.418;20.742;2022-11-02T01:47:25;100854.09;;;13.45;75.72
75172;BME280;63750;52.418;20.742;2022-11-02T01:49:59;100855.33;;;13.45;75.81
75172;BME280;63750;52.418;20.742;2022-11-02T01:52:31;100856.27;;;13.44;75.74
75172;BME280;63750;52.418;20.742;2022-11-02T01:55:08;100857.55;;;13.42;75.67
75172;BME280;63750;52.418;20.742;2022-11-02T01:57:40;100864.84;;;13.42;75.74
75172;BME280;63750;52.418;20.742;2022-11-02T02:00:13;100869.29;;;13.42;75.85
75172;BME280;63750;52.418;20.742;2022-11-02T02:02:52;100864.17;;;13.41;75.69
75172;BME280;63750;52.418;20.742;2022-11-02T02:05:23;100862.45;;;13.39;75.94
75172;BME280;63750;52.418;20.742;2022-11-02T02:07:52;100862.17;;;13.40;76.01
75172;BME280;63750;52.418;20.742;2022-11-02T02:10:20;100862.63;;;13.39;75.78
75172;BME280;63750;52.418;20.742;2022-11-02T02:12:49;100857.45;;;13.35;75.80
75172;BME280;63750;52.418;20.742;2022-11-02T02:15:18;100859.14;;;13.33;75.91
75172;BME280;63750;52.418;20.742;2022-11-02T02:17:51;100861.30;;;13.32;76.03
75172;BME280;63750;52.418;20.742;2022-11-02T02:20:38;100864.09;;;13.31;76.18
75172;BME280;63750;52.418;20.742;2022-11-02T02:23:29;100869.73;;;13.31;76.35
75172;BME280;63750;52.418;20.742;2022-11-02T02:26:12;100867.77;;;13.32;76.37
75172;BME280;63750;52.418;20.742;2022-11-02T02:28:50;100870.22;;;13.34;76.57
75172;BME280;63750;52.418;20.742;2022-11-02T02:31:27;100870.75;;;13.34;76.35
75172;BME280;63750;52.418;20.742;2022-11-02T02:34:06;100878.60;;;13.36;76.38
75172;BME280;63750;52.418;20.742;2022-11-02T02:36:42;100875.25;;;13.33;76.40
75172;BME280;63750;52.418;20.742;2022-11-02T02:39:15;100873.84;;;13.33;76.61
75172;BME280;63750;52.418;20.742;2022-11-02T02:41:46;100869.91;;;13.34;76.41
75172;BME280;63750;52.418;20.742;2022-11-02T02:44:21;100869.45;;;13.35;76.63
75172;BME280;63750;52.418;20.742;2022-11-02T02:46:53;100863.95;;;13.36;76.47
75172;BME280;63750;52.418;20.742;2022-11-02T02:49:28;100866.73;;;13.35;76.50
75172;BME280;63750;52.418;20.742;2022-11-02T02:51:59;100871.31;;;13.37;76.51
75172;BME280;63750;52.418;20.742;2022-11-02T02:54:31;100871.27;;;13.36;76.64
75172;BME280;63750;52.418;20.742;2022-11-02T02:57:05;100872.41;;;13.37;76.68
75172;BME280;63750;52.418;20.742;2022-11-02T02:59:38;100873.79;;;13.37;76.95
75172;BME280;63750;52.418;20.742;2022-11-02T03:02:11;100880.14;;;13.38;76.89
75172;BME280;63750;52.418;20.742;2022-11-02T03:04:42;100879.52;;;13.37;77.09
75172;BME280;63750;52.418;20.742;2022-11-02T03:07:12;100877.96;;;13.38;76.99
75172;BME280;63750;52.418;20.742;2022-11-02T03:09:46;100881.23;;;13.40;77.15
75172;BME280;63750;52.418;20.742;2022-11-02T03:12:25;100875.98;;;13.43;77.45
75172;BME280;63750;52.418;20.742;2022-11-02T03:15:09;100872.33;;;13.48;77.43
75172;BME280;63750;52.418;20.742;2022-11-02T03:17:47;100872.63;;;13.57;77.87
75172;BME280;63750;52.418;20.742;2022-11-02T03:20:24;100871.50;;;13.67;77.44
75172;BME280;63750;52.418;20.742;2022-11-02T03:22:59;100875.33;;;13.70;77.07
75172;BME280;63750;52.418;20.742;2022-11-02T03:25:38;100874.52;;;13.69;76.88
75172;BME280;63750;52.418;20.742;2022-11-02T03:28:13;100878.42;;;13.71;76.92
75172;BME280;63750;52.418;20.742;2022-11-02T03:30:46;100885.98;;;13.73;76.88
75172;BME280;63750;52.418;20.742;2022-11-02T03:33:19;100886.06;;;13.73;77.47
75172;BME280;63750;52.418;20.742;2022-11-02T03:35:53;100886.16;;;13.80;77.54
75172;BME280;63750;52.418;20.742;2022-11-02T03:38:27;100885.40;;;13.86;77.13
75172;BME280;63750;52.418;20.742;2022-11-02T03:41:00;100884.23;;;13.87;76.91
75172;BME280;63750;52.418;20.742;2022-11-02T03:43:31;100887.53;;;13.88;76.76
75172;BME280;63750;52.418;20.742;2022-11-02T03:46:03;100887.14;;;13.88;76.71
75172;BME280;63750;52.418;20.742;2022-11-02T03:48:37;100889.98;;;13.87;76.60
75172;BME280;63750;52.418;20.742;2022-11-02T03:51:12;100889.17;;;13.84;76.63
75172;BME280;63750;52.418;20.742;2022-11-02T03:53:46;100890.50;;;13.83;76.65
75172;BME280;63750;52.418;20.742;2022-11-02T03:56:20;100893.16;;;13.83;76.65
75172;BME280;63750;52.418;20.742;2022-11-02T03:58:49;100895.98;;;13.82;76.81
75172;BME280;63750;52.418;20.742;2022-11-02T04:01:19;100894.48;;;13.79;76.76
75172;BME280;63750;52.418;20.742;2022-11-02T04:03:48;100895.16;;;13.77;77.10
75172;BME280;63750;52.418;20.742;2022-11-02T04:06:16;100892.64;;;13.75;77.11
75172;BME280;63750;52.418;20.742;2022-11-02T04:08:46;100893.98;;;13.76;77.12
75172;BME280;63750;52.418;20.742;2022-11-02T04:11:16;100889.46;;;13.77;77.07
75172;BME280;63750;52.418;20.742;2022-11-02T04:13:44;100891.40;;;13.78;77.33
75172;BME280;63750;52.418;20.742;2022-11-02T04:16:13;100891.43;;;13.77;77.23
75172;BME280;63750;52.418;20.742;2022-11-02T04:18:42;100888.40;;;13.77;77.51
75172;BME280;63750;52.418;20.742;2022-11-02T04:21:10;100893.00;;;13.78;77.68
75172;BME280;63750;52.418;20.742;2022-11-02T04:23:38;100893.40;;;13.77;77.53
75172;BME280;63750;52.418;20.742;2022-11-02T04:26:06;100895.50;;;13.79;77.45
75172;BME280;63750;52.418;20.742;2022-11-02T04:28:35;100900.54;;;13.79;77.71
75172;BME280;63750;52.418;20.742;2022-11-02T04:31:04;100900.58;;;13.79;77.89
75172;BME280;63750;52.418;20.742;2022-11-02T04:33:32;100903.55;;;13.77;77.75
75172;BME280;63750;52.418;20.742;2022-11-02T04:36:01;100903.39;;;13.75;77.94
75172;BME280;63750;52.418;20.742;2022-11-02T04:38:30;100906.05;;;13.75;78.05
75172;BME280;63750;52.418;20.742;2022-11-02T04:41:01;100900.09;;;13.76;78.04
75172;BME280;63750;52.418;20.742;2022-11-02T04:43:29;100902.91;;;13.79;78.13
75172;BME280;63750;52.418;20.742;2022-11-02T04:45:59;100904.36;;;13.82;78.39
75172;BME280;63750;52.418;20.742;2022-11-02T04:48:27;100909.17;;;13.82;78.38
75172;BME280;63750;52.418;20.742;2022-11-02T04:50:57;100909.96;;;13.85;78.50
75172;BME280;63750;52.418;20.742;2022-11-02T04:53:26;100907.67;;;13.88;78.31
75172;BME280;63750;52.418;20.742;2022-11-02T04:55:55;100907.33;;;13.90;78.42
75172;BME280;63750;52.418;20.742;2022-11-02T04:58:23;100912.11;;;13.92;78.44
75172;BME280;63750;52.418;20.742;2022-11-02T05:00:52;100914.36;;;13.95;78.26
75172;BME280;63750;52.418;20.742;2022-11-02T05:03:20;100916.21;;;13.97;78.39
75172;BME280;63750;52.418;20.742;2022-11-02T05:05:48;100918.99;;;14.02;78.55
75172;BME280;63750;52.418;20.742;2022-11-02T05:08:20;100920.31;;;14.05;78.48
75172;BME280;63750;52.418;20.742;2022-11-02T05:10:52;100921.06;;;14.08;78.55
75172;BME280;63750;52.418;20.742;2022-11-02T05:13:20;100923.20;;;14.12;78.54
75172;BME280;63750;52.418;20.742;2022-11-02T05:15:49;100929.52;;;14.15;78.51
75172;BME280;63750;52.418;20.742;2022-11-02T05:18:17;100933.74;;;14.17;78.69
75172;BME280;63750;52.418;20.742;2022-11-02T05:20:50;100936.20;;;14.19;78.45
75172;BME280;63750;52.418;20.742;2022-11-02T05:23:19;100936.41;;;14.21;78.65
75172;BME280;63750;52.418;20.742;2022-11-02T05:25:54;100932.70;;;14.24;78.57
75172;BME280;63750;52.418;20.742;2022-11-02T05:28:23;100933.10;;;14.27;78.54
75172;BME280;63750;52.418;20.742;2022-11-02T05:30:52;100938.17;;;14.32;78.46
75172;BME280;63750;52.418;20.742;2022-11-02T05:33:21;100938.91;;;14.35;78.32
75172;BME280;63750;52.418;20.742;2022-11-02T05:35:50;100941.45;;;14.39;78.46
75172;BME280;63750;52.418;20.742;2022-11-02T05:38:18;100945.81;;;14.42;78.28
75172;BME280;63750;52.418;20.742;2022-11-02T05:40:51;100943.34;;;14.43;78.28
75172;BME280;63750;52.418;20.742;2022-11-02T05:43:20;100944.56;;;14.48;78.36
75172;BME280;63750;52.418;20.742;2022-11-02T05:45:53;100940.36;;;14.51;78.22
75172;BME280;63750;52.418;20.742;2022-11-02T05:48:23;100937.17;;;14.52;78.35
75172;BME280;63750;52.418;20.742;2022-11-02T05:50:56;100939.47;;;14.54;78.29
75172;BME280;63750;52.418;20.742;2022-11-02T05:53:25;100943.27;;;14.57;78.18
75172;BME280;63750;52.418;20.742;2022-11-02T05:55:57;100946.52;;;14.60;78.25
75172;BME280;63750;52.418;20.742;2022-11-02T05:58:26;100950.90;;;14.63;77.91
75172;BME280;63750;52.418;20.742;2022-11-02T06:00:57;100954.05;;;14.63;77.75
75172;BME280;63750;52.418;20.742;2022-11-02T06:03:26;100956.73;;;14.64;77.85
75172;BME280;63750;52.418;20.742;2022-11-02T06:05:57;100959.83;;;14.65;77.96
75172;BME280;63750;52.418;20.742;2022-11-02T06:08:26;100961.84;;;14.66;77.83
75172;BME280;63750;52.418;20.742;2022-11-02T06:10:54;100964.41;;;14.67;77.82
75172;BME280;63750;52.418;20.742;2022-11-02T06:13:23;100966.27;;;14.68;77.45
75172;BME280;63750;52.418;20.742;2022-11-02T06:15:51;100968.27;;;14.68;77.63
75172;BME280;63750;52.418;20.742;2022-11-02T06:18:20;100973.61;;;14.68;77.63
75172;BME280;63750;52.418;20.742;2022-11-02T06:20:48;100975.55;;;14.68;77.70
75172;BME280;63750;52.418;20.742;2022-11-02T06:23:17;100976.55;;;14.68;77.36
75172;BME280;63750;52.418;20.742;2022-11-02T06:25:50;100977.49;;;14.70;77.48
75172;BME280;63750;52.418;20.742;2022-11-02T06:28:19;100973.39;;;14.70;77.24
75172;BME280;63750;52.418;20.742;2022-11-02T06:30:47;100974.67;;;14.71;77.54
75172;BME280;63750;52.418;20.742;2022-11-02T06:33:17;100978.38;;;14.73;77.32
75172;BME280;63750;52.418;20.742;2022-11-02T06:35:46;100976.06;;;14.75;77.18
75172;BME280;63750;52.418;20.742;2022-11-02T06:38:15;100975.38;;;14.75;77.02
75172;BME280;63750;52.418;20.742;2022-11-02T06:40:47;100975.36;;;14.75;76.93
75172;BME280;63750;52.418;20.742;2022-11-02T06:43:19;100979.23;;;14.77;76.79
75172;BME280;63750;52.418;20.742;2022-11-02T06:45:48;100978.97;;;14.80;76.68
75172;BME280;63750;52.418;20.742;2022-11-02T06:48:19;100984.57;;;14.85;76.56
75172;BME280;63750;52.418;20.742;2022-11-02T06:50:47;100985.52;;;14.88;76.46
75172;BME280;63750;52.418;20.742;2022-11-02T06:53:15;100983.30;;;14.91;76.40
75172;BME280;63750;52.418;20.742;2022-11-02T06:55:44;100984.25;;;14.92;76.16
75172;BME280;63750;52.418;20.742;2022-11-02T06:58:12;100984.27;;;14.96;76.02
75172;BME280;63750;52.418;20.742;2022-11-02T07:00:41;100983.13;;;15.00;76.13
75172;BME280;63750;52.418;20.742;2022-11-02T07:03:10;100986.83;;;15.04;76.10
75172;BME280;63750;52.418;20.742;2022-11-02T07:05:38;100985.09;;;15.07;76.23
75172;BME280;63750;52.418;20.742;2022-11-02T07:08:07;100990.89;;;15.10;75.91
75172;BME280;63750;52.418;20.742;2022-11-02T07:10:35;100994.83;;;15.13;75.83
75172;BME280;63750;52.418;20.742;2022-11-02T07:13:03;100995.42;;;15.16;75.80
75172;BME280;63750;52.418;20.742;2022-11-02T07:15:32;100996.42;;;15.19;75.78
75172;BME280;63750;52.418;20.742;2022-11-02T07:18:00;100997.40;;;15.20;75.74
75172;BME280;63750;52.418;20.742;2022-11-02T07:20:28;100998.89;;;15.21;75.90
75172;BME280;63750;52.418;20.742;2022-11-02T07:22:58;101003.85;;;15.25;75.92
75172;BME280;63750;52.418;20.742;2022-11-02T07:25:28;101001.61;;;15.29;75.81
75172;BME280;63750;52.418;20.742;2022-11-02T07:27:57;101002.98;;;15.32;75.57
75172;BME280;63750;52.418;20.742;2022-11-02T07:30:27;101001.70;;;15.32;75.67
75172;BME280;63750;52.418;20.742;2022-11-02T07:32:55;101000.85;;;15.33;75.65
75172;BME280;63750;52.418;20.742;2022-11-02T07:35:24;101002.34;;;15.33;75.61
75172;BME280;63750;52.418;20.742;2022-11-02T07:38:00;101001.87;;;15.32;75.51
75172;BME280;63750;52.418;20.742;2022-11-02T07:40:30;101001.67;;;15.32;75.49
75172;BME280;63750;52.418;20.742;2022-11-02T07:42:59;101001.34;;;15.37;75.54
75172;BME280;63750;52.418;20.742;2022-11-02T07:45:27;101004.63;;;15.38;75.28
75172;BME280;63750;52.418;20.742;2022-11-02T07:47:56;101001.08;;;15.42;75.18
75172;BME280;63750;52.418;20.742;2022-11-02T07:50:25;100999.73;;;15.46;75.22
75172;BME280;63750;52.418;20.742;2022-11-02T07:52:55;101003.63;;;15.50;75.10
75172;BME280;63750;52.418;20.742;2022-11-02T07:55:26;101004.60;;;15.53;75.04
75172;BME280;63750;52.418;20.742;2022-11-02T07:57:57;101004.20;;;15.56;75.00
75172;BME280;63750;52.418;20.742;2022-11-02T08:00:27;101006.52;;;15.59;74.90
75172;BME280;63750;52.418;20.742;2022-11-02T08:02:56;101006.70;;;15.64;74.79
75172;BME280;63750;52.418;20.742;2022-11-02T08:05:26;101010.02;;;15.68;74.60
75172;BME280;63750;52.418;20.742;2022-11-02T08:07:58;101003.75;;;15.70;74.49
75172;BME280;63750;52.418;20.742;2022-11-02T08:10:28;101002.93;;;15.71;74.44
75172;BME280;63750;52.418;20.742;2022-11-02T08:12:56;101007.84;;;15.71;74.28
75172;BME280;63750;52.418;20.742;2022-11-02T08:15:25;101006.43;;;15.67;74.23
75172;BME280;63750;52.418;20.742;2022-11-02T08:18:02;101009.59;;;15.66;74.22
75172;BME280;63750;52.418;20.742;2022-11-02T08:20:32;101012.49;;;15.67;74.08
75172;BME280;63750;52.418;20.742;2022-11-02T08:23:01;101011.04;;;15.69;74.03
75172;BME280;63750;52.418;20.742;2022-11-02T08:25:29;101011.14;;;15.73;73.87
75172;BME280;63750;52.418;20.742;2022-11-02T08:27:58;101012.44;;;15.74;73.53
75172;BME280;63750;52.418;20.742;2022-11-02T08:30:28;101009.45;;;15.74;73.53
75172;BME280;63750;52.418;20.742;2022-11-02T08:33:04;101008.67;;;15.71;73.34
75172;BME280;63750;52.418;20.742;2022-11-02T08:35:33;101009.04;;;15.69;73.37
75172;BME280;63750;52.418;20.742;2022-11-02T08:38:01;101008.23;;;15.67;73.32
75172;BME280;63750;52.418;20.742;2022-11-02T08:40:30;101011.66;;;15.65;73.25
75172;BME280;63750;52.418;20.742;2022-11-02T08:43:00;101009.45;;;15.60;73.07
75172;BME280;63750;52.418;20.742;2022-11-02T08:45:29;101006.41;;;15.55;72.98
75172;BME280;63750;52.418;20.742;2022-11-02T08:47:58;101008.36;;;15.51;72.84
75172;BME280;63750;52.418;20.742;2022-11-02T08:50:27;101005.63;;;15.44;72.67
75172;BME280;63750;52.418;20.742;2022-11-02T08:52:55;101001.73;;;15.35;72.80
75172;BME280;63750;52.418;20.742;2022-11-02T08:55:24;100999.67;;;15.29;72.53
75172;BME280;63750;52.418;20.742;2022-11-02T08:57:53;101001.66;;;15.24;72.76
75172;BME280;63750;52.418;20.742;2022-11-02T09:00:24;101004.77;;;15.19;73.05
75172;BME280;63750;52.418;20.742;2022-11-02T09:03:04;101004.69;;;15.16;73.19
75172;BME280;63750;52.418;20.742;2022-11-02T09:05:34;101004.73;;;15.14;73.42
75172;BME280;63750;52.418;20.742;2022-11-02T09:08:05;101008.61;;;15.14;73.42
75172;BME280;63750;52.418;20.742;2022-11-02T09:10:35;101005.79;;;15.16;73.37
75172;BME280;63750;52.418;20.742;2022-11-02T09:13:05;101002.23;;;15.17;73.49
75172;BME280;63750;52.418;20.742;2022-11-02T09:15:35;100999.05;;;15.21;73.45
75172;BME280;63750;52.418;20.742;2022-11-02T09:18:04;101001.89;;;15.27;73.64
75172;BME280;63750;52.418;20.742;2022-11-02T09:20:33;101002.36;;;15.31;73.56
75172;BME280;63750;52.418;20.742;2022-11-02T09:23:02;101004.41;;;15.37;73.49
75172;BME280;63750;52.418;20.742;2022-11-02T09:25:30;101005.61;;;15.43;73.48
75172;BME280;63750;52.418;20.742;2022-11-02T09:27:58;101007.98;;;15.48;73.24
75172;BME280;63750;52.418;20.742;2022-11-02T09:30:27;101015.65;;;15.47;73.10
75172;BME280;63750;52.418;20.742;2022-11-02T09:32:57;101020.73;;;15.42;72.86
75172;BME280;63750;52.418;20.742;2022-11-02T09:35:26;101013.52;;;15.37;72.71
75172;BME280;63750;52.418;20.742;2022-11-02T09:37:55;101010.30;;;15.40;73.36
75172;BME280;63750;52.418;20.742;2022-11-02T09:40:26;101011.27;;;15.54;73.51
75172;BME280;63750;52.418;20.742;2022-11-02T09:43:00;101014.52;;;15.68;73.07
75172;BME280;63750;52.418;20.742;2022-11-02T09:45:32;101009.90;;;15.78;72.33
75172;BME280;63750;52.418;20.742;2022-11-02T09:48:09;101011.61;;;15.75;71.69
75172;BME280;63750;52.418;20.742;2022-11-02T09:50:43;101013.27;;;15.68;71.63
75172;BME280;63750;52.418;20.742;2022-11-02T09:53:17;101012.14;;;15.65;71.43
75172;BME280;63750;52.418;20.742;2022-11-02T09:55:53;101012.90;;;15.65;71.48
75172;BME280;63750;52.418;20.742;2022-11-02T09:58:29;101015.93;;;15.63;71.66
75172;BME280;63750;52.418;20.742;2022-11-02T10:01:04;101010.72;;;15.58;71.60
75172;BME280;63750;52.418;20.742;2022-11-02T10:03:46;101011.73;;;15.60;71.93
75172;BME280;63750;52.418;20.742;2022-11-02T10:06:20;101015.53;;;15.63;72.34
75172;BME280;63750;52.418;20.742;2022-11-02T10:08:58;101014.03;;;15.64;71.97
75172;BME280;63750;52.418;20.742;2022-11-02T10:11:41;101014.38;;;15.57;71.62
75172;BME280;63750;52.418;20.742;2022-11-02T10:14:16;101017.33;;;15.50;71.43
75172;BME280;63750;52.418;20.742;2022-11-02T10:16:52;101016.86;;;15.44;71.70
75172;BME280;63750;52.418;20.742;2022-11-02T10:19:24;101015.63;;;15.43;71.91
75172;BME280;63750;52.418;20.742;2022-11-02T10:21:55;101013.95;;;15.43;72.27
75172;BME280;63750;52.418;20.742;2022-11-02T10:24:28;101014.04;;;15.51;72.82
75172;BME280;63750;52.418;20.742;2022-11-02T10:27:01;101013.51;;;15.62;72.70
75172;BME280;63750;52.418;20.742;2022-11-02T10:29:40;101014.06;;;15.67;72.22
75172;BME280;63750;52.418;20.742;2022-11-02T10:32:12;101010.67;;;15.66;71.84
75172;BME280;63750;52.418;20.742;2022-11-02T10:34:43;101010.74;;;15.67;71.98
75172;BME280;63750;52.418;20.742;2022-11-02T10:37:21;101013.58;;;15.69;72.50
75172;BME280;63750;52.418;20.742;2022-11-02T10:40:00;101017.91;;;15.73;72.70
75172;BME280;63750;52.418;20.742;2022-11-02T10:42:41;101018.44;;;15.86;72.86
75172;BME280;63750;52.418;20.742;2022-11-02T10:48:19;101021.64;;;16.07;71.61
75172;BME280;63750;52.418;20.742;2022-11-02T10:51:02;101023.70;;;16.08;71.20
75172;BME280;63750;52.418;20.742;2022-11-02T10:53:37;101021.17;;;16.06;70.78
75172;BME280;63750;52.418;20.742;2022-11-02T10:56:12;101016.36;;;16.03;70.86
75172;BME280;63750;52.418;20.742;2022-11-02T10:58:48;101019.10;;;16.01;70.91
75172;BME280;63750;52.418;20.742;2022-11-02T11:01:18;101019.26;;;15.99;70.87
75172;BME280;63750;52.418;20.742;2022-11-02T11:03:58;101016.08;;;15.97;70.94
75172;BME280;63750;52.418;20.742;2022-11-02T11:06:28;101016.49;;;15.98;71.14
75172;BME280;63750;52.418;20.742;2022-11-02T11:09:04;101019.76;;;15.96;71.17
75172;BME280;63750;52.418;20.742;2022-11-02T11:11:34;101018.42;;;15.93;71.24
75172;BME280;63750;52.418;20.742;2022-11-02T11:14:05;101014.55;;;15.91;71.21
75172;BME280;63750;52.418;20.742;2022-11-02T11:16:37;101014.02;;;15.92;71.28
75172;BME280;63750;52.418;20.742;2022-11-02T11:19:14;101020.70;;;15.92;70.92
75172;BME280;63750;52.418;20.742;2022-11-02T11:21:45;101015.47;;;15.85;70.59
75172;BME280;63750;52.418;20.742;2022-11-02T11:24:23;101015.23;;;15.86;70.27
75172;BME280;63750;52.418;20.742;2022-11-02T11:27:04;101011.48;;;15.85;70.03
75172;BME280;63750;52.418;20.742;2022-11-02T11:29:34;101013.14;;;15.83;69.59
75172;BME280;63750;52.418;20.742;2022-11-02T11:32:14;101010.98;;;15.85;69.37
75172;BME280;63750;52.418;20.742;2022-11-02T11:34:44;101006.22;;;15.88;69.33
75172;BME280;63750;52.418;20.742;2022-11-02T11:37:14;101005.14;;;15.92;69.18
75172;BME280;63750;52.418;20.742;2022-11-02T11:39:45;100999.48;;;15.95;68.97
75172;BME280;63750;52.418;20.742;2022-11-02T11:42:20;101001.27;;;15.97;68.69
75172;BME280;63750;52.418;20.742;2022-11-02T11:44:56;101006.39;;;15.99;68.60
75172;BME280;63750;52.418;20.742;2022-11-02T11:47:27;101006.70;;;16.08;69.00
75172;BME280;63750;52.418;20.742;2022-11-02T11:49:58;101006.39;;;16.20;69.13
75172;BME280;63750;52.418;20.742;2022-11-02T11:52:29;100998.70;;;16.28;68.61
75172;BME280;63750;52.418;20.742;2022-11-02T11:54:59;100992.70;;;16.37;68.10
75172;BME280;63750;52.418;20.742;2022-11-02T11:57:30;100996.20;;;16.38;67.67
75172;BME280;63750;52.418;20.742;2022-11-02T12:00:00;100992.23;;;16.40;67.58
75172;BME280;63750;52.418;20.742;2022-11-02T12:02:30;100993.68;;;16.50;67.42
75172;BME280;63750;52.418;20.742;2022-11-02T12:05:01;100990.75;;;16.58;67.05
75172;BME280;63750;52.418;20.742;2022-11-02T12:07:46;100988.52;;;16.66;66.39
75172;BME280;63750;52.418;20.742;2022-11-02T12:10:21;100989.16;;;16.62;66.05
75172;BME280;63750;52.418;20.742;2022-11-02T12:13:00;100992.23;;;16.59;66.27
75172;BME280;63750;52.418;20.742;2022-11-02T12:15:43;100996.84;;;16.67;66.47
75172;BME280;63750;52.418;20.742;2022-11-02T12:18:25;100981.68;;;16.85;66.68
75172;BME280;63750;52.418;20.742;2022-11-02T12:21:05;100984.58;;;16.91;66.40
75172;BME280;63750;52.418;20.742;2022-11-02T12:23:56;100979.08;;;16.97;66.36
75172;BME280;63750;52.418;20.742;2022-11-02T12:26:34;100977.60;;;16.99;66.00
75172;BME280;63750;52.418;20.742;2022-11-02T12:29:15;100972.70;;;17.00;65.85
75172;BME280;63750;52.418;20.742;2022-11-02T12:31:55;100969.05;;;17.02;66.00
75172;BME280;63750;52.418;20.742;2022-11-02T12:34:44;100971.89;;;17.04;65.79
75172;BME280;63750;52.418;20.742;2022-11-02T12:37:22;100966.98;;;17.07;65.75
75172;BME280;63750;52.418;20.742;2022-11-02T12:40:12;100963.55;;;17.10;65.58
75172;BME280;63750;52.418;20.742;2022-11-02T12:42:50;100960.49;;;17.08;65.61
75172;BME280;63750;52.418;20.742;2022-11-02T12:45:28;100958.11;;;17.07;65.54
75172;BME280;63750;52.418;20.742;2022-11-02T12:48:02;100964.09;;;17.10;65.47
75172;BME280;63750;52.418;20.742;2022-11-02T12:50:52;100962.99;;;17.13;65.28
75172;BME280;63750;52.418;20.742;2022-11-02T12:53:41;100956.06;;;17.16;65.39
75172;BME280;63750;52.418;20.742;2022-11-02T12:56:15;100954.48;;;17.16;65.39
75172;BME280;63750;52.418;20.742;2022-11-02T12:58:45;100954.20;;;17.15;65.31
75172;BME280;63750;52.418;20.742;2022-11-02T13:01:21;100956.66;;;17.19;65.15
75172;BME280;63750;52.418;20.742;2022-11-02T13:03:55;100954.73;;;17.27;65.48
75172;BME280;63750;52.418;20.742;2022-11-02T13:06:30;100949.80;;;17.32;65.27